sensor_id;sensor_type;location;lat;lon;timestamp;pressure;altitude;pressure_sealevel;temperature;humidity
2785;BME280;57944;48.722;9.316;2022-12-13T00:00:39;97426.78;;;-7.89;100.00
2785;BME280;57944;48.722;9.316;2022-12-13T00:03:09;97424.75;;;-7.97;100.00
2785;BME280;57944;48.722;9.316;2022-12-13T00:05:43;97426.44;;;-7.97;100.00
2785;BME280;57944;48.722;9.316;2022-12-13T00:08:13;97429.03;;;-7.99;100.00
2785;BME280;57944;48.722;9.316;2022-12-13T00:10:43;97425.66;;;-7.98;100.00
2785;BME280;57944;48.722;9.316;2022-12-13T00:13:14;97424.41;;;-7.91;100.00
2785;BME280;57944;48.722;9.316;2022-12-13T00:15:55;97412.47;;;-7.84;100.00
2785;BME280;57944;48.722;9.316;2022-12-13T00:18:26;97417.78;;;-7.90;100.00
2785;BME280;57944;48.722;9.316;2022-12-13T00:20:57;97412.31;;;-7.95;100.00
2785;BME280;57944;48.722;9.316;2022-12-13T00:23:28;97410.63;;;-7.95;100.00
2785;BME280;57944;48.722;9.316;2022-12-13T00:26:02;97411.72;;;-7.99;100.00
2785;BME280;57944;48.722;9.316;2022-12-13T00:28:33;97416.88;;;-7.75;100.00
2785;BME280;57944;48.722;9.316;2022-12-13T00:31:07;97399.50;;;-7.88;100.00
2785;BME280;57944;48.722;9.316;2022-12-13T00:33:57;97410.59;;;-7.80;100.00
2785;BME280;57944;48.722;9.316;2022-12-13T00:36:27;97400.22;;;-7.85;100.00
2785;BME280;57944;48.722;9.316;2022-12-13T00:38:57;97400.72;;;-7.80;100.00
2785;BME280;57944;48.722;9.316;2022-12-13T00:41:33;97404.44;;;-7.88;100.00
2785;BME280;57944;48.722;9.316;2022-12-13T00:44:04;97403.66;;;-7.88;100.00
2785;BME280;57944;48.722;9.316;2022-12-13T00:46:38;97405.13;;;-7.71;100.00
2785;BME280;57944;48.722;9.316;2022-12-13T00:49:10;97399.13;;;-7.81;100.00
2785;BME280;57944;48.722;9.316;2022-12-13T00:51:41;97400.63;;;-7.79;100.00
2785;BME280;57944;48.722;9.316;2022-12-13T00:54:11;97388.19;;;-7.92;100.00
2785;BME280;57944;48.722;9.316;2022-12-13T00:56:41;97384.59;;;-8.00;100.00
2785;BME280;57944;48.722;9.316;2022-12-13T00:59:13;97378.31;;;-7.92;100.00
2785;BME280;57944;48.722;9.316;2022-12-13T01:01:46;97373.31;;;-8.04;100.00
2785;BME280;57944;48.722;9.316;2022-12-13T01:04:16;97374.28;;;-8.07;100.00
2785;BME280;57944;48.722;9.316;2022-12-13T01:06:47;97374.53;;;-7.97;100.00
2785;BME280;57944;48.722;9.316;2022-12-13T01:09:22;97373.13;;;-8.01;100.00
2785;BME280;57944;48.722;9.316;2022-12-13T01:11:56;97363.78;;;-8.11;100.00
2785;BME280;57944;48.722;9.316;2022-12-13T01:14:28;97373.03;;;-8.14;100.00
2785;BME280;57944;48.722;9.316;2022-12-13T01:17:01;97366.25;;;-8.25;100.00
2785;BME280;57944;48.722;9.316;2022-12-13T01:19:33;97380.31;;;-8.25;100.00
2785;BME280;57944;48.722;9.316;2022-12-13T01:22:05;97371.38;;;-8.28;100.00
2785;BME280;57944;48.722;9.316;2022-12-13T01:24:37;97372.53;;;-8.34;100.00
2785;BME280;57944;48.722;9.316;2022-12-13T01:27:08;97372.94;;;-8.40;100.00
2785;BME280;57944;48.722;9.316;2022-12-13T01:29:38;97378.94;;;-8.44;100.00
2785;BME280;57944;48.722;9.316;2022-12-13T01:32:11;97374.88;;;-8.45;100.00
2785;BME280;57944;48.722;9.316;2022-12-13T01:34:41;97378.22;;;-8.46;100.00
2785;BME280;57944;48.722;9.316;2022-12-13T01:37:11;97376.97;;;-8.53;100.00
2785;BME280;57944;48.722;9.316;2022-12-13T01:39:43;97376.00;;;-8.50;100.00
2785;BME280;57944;48.722;9.316;2022-12-13T01:42:14;97377.94;;;-8.41;100.00
2785;BME280;57944;48.722;9.316;2022-12-13T01:45:01;97372.94;;;-8.54;100.00
2785;BME280;57944;48.722;9.316;2022-12-13T01:47:39;97368.41;;;-8.62;100.00
2785;BME280;57944;48.722;9.316;2022-12-13T01:50:16;97364.63;;;-8.67;100.00
2785;BME280;57944;48.722;9.316;2022-12-13T01:52:48;97359.63;;;-8.66;100.00
2785;BME280;57944;48.722;9.316;2022-12-13T01:55:21;97361.72;;;-8.60;100.00
2785;BME280;57944;48.722;9.316;2022-12-13T01:57:56;97360.22;;;-8.62;100.00
2785;BME280;57944;48.722;9.316;2022-12-13T02:00:28;97358.66;;;-8.63;100.00
2785;BME280;57944;48.722;9.316;2022-12-13T02:03:02;97355.28;;;-8.62;100.00
2785;BME280;57944;48.722;9.316;2022-12-13T02:05:55;97354.94;;;-8.70;100.00
2785;BME280;57944;48.722;9.316;2022-12-13T02:08:27;97350.88;;;-8.71;100.00
2785;BME280;57944;48.722;9.316;2022-12-13T02:11:03;97351.91;;;-8.75;100.00
2785;BME280;57944;48.722;9.316;2022-12-13T02:13:35;97347.78;;;-8.75;100.00
2785;BME280;57944;48.722;9.316;2022-12-13T02:16:11;97342.41;;;-8.67;100.00
2785;BME280;57944;48.722;9.316;2022-12-13T02:19:38;97346.31;;;-8.63;100.00
2785;BME280;57944;48.722;9.316;2022-12-13T02:22:31;97336.06;;;-8.57;100.00
2785;BME280;57944;48.722;9.316;2022-12-13T02:25:43;97340.09;;;-8.56;100.00
2785;BME280;57944;48.722;9.316;2022-12-13T02:28:47;97336.75;;;-8.69;100.00
2785;BME280;57944;48.722;9.316;2022-12-13T02:31:30;97337.09;;;-8.75;100.00
2785;BME280;57944;48.722;9.316;2022-12-13T02:34:08;97331.63;;;-8.81;100.00
2785;BME280;57944;48.722;9.316;2022-12-13T02:36:49;97330.22;;;-8.85;100.00
2785;BME280;57944;48.722;9.316;2022-12-13T02:39:27;97333.41;;;-8.83;100.00
2785;BME280;57944;48.722;9.316;2022-12-13T02:42:04;97330.94;;;-8.83;100.00
2785;BME280;57944;48.722;9.316;2022-12-13T02:44:55;97336.94;;;-8.72;100.00
2785;BME280;57944;48.722;9.316;2022-12-13T02:47:30;97330.59;;;-8.77;100.00
2785;BME280;57944;48.722;9.316;2022-12-13T02:50:06;97333.66;;;-8.59;100.00
2785;BME280;57944;48.722;9.316;2022-12-13T02:52:39;97329.50;;;-8.58;100.00
2785;BME280;57944;48.722;9.316;2022-12-13T02:55:15;97333.25;;;-8.65;100.00
2785;BME280;57944;48.722;9.316;2022-12-13T02:57:51;97337.81;;;-8.73;100.00
2785;BME280;57944;48.722;9.316;2022-12-13T03:00:29;97338.72;;;-8.74;100.00
2785;BME280;57944;48.722;9.316;2022-12-13T03:03:19;97322.47;;;-8.79;100.00
2785;BME280;57944;48.722;9.316;2022-12-13T03:06:03;97327.22;;;-8.75;100.00
2785;BME280;57944;48.722;9.316;2022-12-13T03:09:02;97325.28;;;-8.70;100.00
2785;BME280;57944;48.722;9.316;2022-12-13T03:11:52;97313.31;;;-8.62;100.00
2785;BME280;57944;48.722;9.316;2022-12-13T03:14:51;97315.06;;;-8.64;100.00
2785;BME280;57944;48.722;9.316;2022-12-13T03:17:25;97308.09;;;-8.72;100.00
2785;BME280;57944;48.722;9.316;2022-12-13T03:19:59;97297.16;;;-8.82;100.00
2785;BME280;57944;48.722;9.316;2022-12-13T03:22:38;97295.66;;;-8.85;100.00
2785;BME280;57944;48.722;9.316;2022-12-13T03:25:09;97295.13;;;-8.90;100.00
2785;BME280;57944;48.722;9.316;2022-12-13T03:27:57;97291.78;;;-8.89;100.00
2785;BME280;57944;48.722;9.316;2022-12-13T03:30:29;97295.66;;;-8.85;100.00
2785;BME280;57944;48.722;9.316;2022-12-13T03:33:00;97294.50;;;-8.65;100.00
2785;BME280;57944;48.722;9.316;2022-12-13T03:35:33;97300.06;;;-8.61;100.00
2785;BME280;57944;48.722;9.316;2022-12-13T03:38:13;97297.41;;;-8.44;100.00
2785;BME280;57944;48.722;9.316;2022-12-13T03:40:52;97302.69;;;-8.50;100.00
2785;BME280;57944;48.722;9.316;2022-12-13T03:43:23;97298.31;;;-8.59;100.00
2785;BME280;57944;48.722;9.316;2022-12-13T03:45:54;97294.34;;;-8.62;100.00
2785;BME280;57944;48.722;9.316;2022-12-13T03:48:24;97293.88;;;-8.54;100.00
2785;BME280;57944;48.722;9.316;2022-12-13T03:50:57;97293.81;;;-8.67;100.00
2785;BME280;57944;48.722;9.316;2022-12-13T03:53:28;97294.09;;;-8.71;100.00
2785;BME280;57944;48.722;9.316;2022-12-13T03:56:03;97295.84;;;-8.73;100.00
2785;BME280;57944;48.722;9.316;2022-12-13T03:58:35;97289.84;;;-8.84;100.00
2785;BME280;57944;48.722;9.316;2022-12-13T04:01:11;97295.75;;;-8.86;100.00
2785;BME280;57944;48.722;9.316;2022-12-13T04:03:45;97288.94;;;-8.97;100.00
2785;BME280;57944;48.722;9.316;2022-12-13T04:06:18;97287.97;;;-8.94;100.00
2785;BME280;57944;48.722;9.316;2022-12-13T04:08:52;97279.59;;;-8.92;100.00
2785;BME280;57944;48.722;9.316;2022-12-13T04:11:22;97278.47;;;-9.01;100.00
2785;BME280;57944;48.722;9.316;2022-12-13T04:14:09;97282.44;;;-8.98;100.00
2785;BME280;57944;48.722;9.316;2022-12-13T04:16:48;97279.78;;;-8.95;100.00
2785;BME280;57944;48.722;9.316;2022-12-13T04:19:19;97284.00;;;-8.97;100.00
2785;BME280;57944;48.722;9.316;2022-12-13T04:21:53;97284.66;;;-8.93;100.00
2785;BME280;57944;48.722;9.316;2022-12-13T04:24:24;97276.97;;;-8.74;100.00
2785;BME280;57944;48.722;9.316;2022-12-13T04:26:58;97277.84;;;-8.75;100.00
2785;BME280;57944;48.722;9.316;2022-12-13T04:29:30;97280.06;;;-8.71;100.00
2785;BME280;57944;48.722;9.316;2022-12-13T04:32:02;97283.38;;;-8.72;100.00
2785;BME280;57944;48.722;9.316;2022-12-13T04:34:53;97275.72;;;-8.67;100.00
2785;BME280;57944;48.722;9.316;2022-12-13T04:37:30;97275.47;;;-8.77;100.00
2785;BME280;57944;48.722;9.316;2022-12-13T04:40:00;97282.63;;;-8.87;100.00
2785;BME280;57944;48.722;9.316;2022-12-13T04:42:30;97277.47;;;-8.69;100.00
2785;BME280;57944;48.722;9.316;2022-12-13T04:45:00;97289.66;;;-8.81;100.00
2785;BME280;57944;48.722;9.316;2022-12-13T04:47:30;97286.31;;;-8.80;100.00
2785;BME280;57944;48.722;9.316;2022-12-13T04:50:00;97283.56;;;-8.75;100.00
2785;BME280;57944;48.722;9.316;2022-12-13T04:52:33;97280.66;;;-8.67;100.00
2785;BME280;57944;48.722;9.316;2022-12-13T04:55:05;97276.50;;;-8.67;100.00
2785;BME280;57944;48.722;9.316;2022-12-13T04:57:37;97276.16;;;-8.75;100.00
2785;BME280;57944;48.722;9.316;2022-12-13T05:00:12;97274.34;;;-8.86;100.00
2785;BME280;57944;48.722;9.316;2022-12-13T05:02:42;97274.94;;;-8.82;100.00
2785;BME280;57944;48.722;9.316;2022-12-13T05:05:12;97267.81;;;-8.87;100.00
2785;BME280;57944;48.722;9.316;2022-12-13T05:07:46;97264.34;;;-8.84;100.00
2785;BME280;57944;48.722;9.316;2022-12-13T05:10:16;97264.97;;;-8.81;100.00
2785;BME280;57944;48.722;9.316;2022-12-13T05:13:04;97272.38;;;-8.81;100.00
2785;BME280;57944;48.722;9.316;2022-12-13T05:15:35;97273.88;;;-8.78;100.00
2785;BME280;57944;48.722;9.316;2022-12-13T05:18:06;97270.25;;;-8.87;100.00
2785;BME280;57944;48.722;9.316;2022-12-13T05:20:37;97265.16;;;-8.84;100.00
2785;BME280;57944;48.722;9.316;2022-12-13T05:23:10;97261.97;;;-8.71;100.00
2785;BME280;57944;48.722;9.316;2022-12-13T05:25:48;97269.56;;;-8.74;100.00
2785;BME280;57944;48.722;9.316;2022-12-13T05:28:19;97272.66;;;-8.71;100.00
2785;BME280;57944;48.722;9.316;2022-12-13T05:30:57;97262.84;;;-8.87;100.00
2785;BME280;57944;48.722;9.316;2022-12-13T05:33:28;97268.50;;;-8.85;100.00
2785;BME280;57944;48.722;9.316;2022-12-13T05:35:58;97261.91;;;-8.84;100.00
2785;BME280;57944;48.722;9.316;2022-12-13T05:38:31;97269.66;;;-8.90;100.00
2785;BME280;57944;48.722;9.316;2022-12-13T05:41:03;97265.78;;;-8.80;100.00
2785;BME280;57944;48.722;9.316;2022-12-13T05:43:34;97261.28;;;-8.88;100.00
2785;BME280;57944;48.722;9.316;2022-12-13T05:46:10;97267.09;;;-8.89;100.00
2785;BME280;57944;48.722;9.316;2022-12-13T05:48:41;97258.25;;;-8.64;100.00
2785;BME280;57944;48.722;9.316;2022-12-13T05:51:11;97252.97;;;-8.72;100.00
2785;BME280;57944;48.722;9.316;2022-12-13T05:53:44;97255.97;;;-8.67;100.00
2785;BME280;57944;48.722;9.316;2022-12-13T05:56:19;97252.44;;;-8.63;100.00
2785;BME280;57944;48.722;9.316;2022-12-13T05:58:49;97250.56;;;-8.45;100.00
2785;BME280;57944;48.722;9.316;2022-12-13T06:01:21;97250.25;;;-8.14;100.00
2785;BME280;57944;48.722;9.316;2022-12-13T06:03:51;97249.91;;;-8.07;100.00
2785;BME280;57944;48.722;9.316;2022-12-13T06:06:22;97249.53;;;-7.89;100.00
2785;BME280;57944;48.722;9.316;2022-12-13T06:08:54;97246.59;;;-7.94;100.00
2785;BME280;57944;48.722;9.316;2022-12-13T06:11:24;97247.25;;;-7.92;100.00
2785;BME280;57944;48.722;9.316;2022-12-13T06:13:58;97257.00;;;-7.76;100.00
2785;BME280;57944;48.722;9.316;2022-12-13T06:16:28;97247.78;;;-7.87;100.00
2785;BME280;57944;48.722;9.316;2022-12-13T06:18:58;97252.41;;;-7.55;100.00
2785;BME280;57944;48.722;9.316;2022-12-13T06:21:31;97252.09;;;-7.63;100.00
2785;BME280;57944;48.722;9.316;2022-12-13T06:24:13;97257.19;;;-7.66;100.00
2785;BME280;57944;48.722;9.316;2022-12-13T06:26:44;97258.41;;;-7.59;100.00
2785;BME280;57944;48.722;9.316;2022-12-13T06:29:15;97258.94;;;-7.28;100.00
2785;BME280;57944;48.722;9.316;2022-12-13T06:31:56;97253.03;;;-6.50;100.00
2785;BME280;57944;48.722;9.316;2022-12-13T06:34:31;97248.41;;;-6.68;100.00
2785;BME280;57944;48.722;9.316;2022-12-13T06:37:04;97249.06;;;-6.66;100.00
2785;BME280;57944;48.722;9.316;2022-12-13T06:39:37;97246.56;;;-6.53;100.00
2785;BME280;57944;48.722;9.316;2022-12-13T06:42:15;97250.25;;;-6.46;100.00
2785;BME280;57944;48.722;9.316;2022-12-13T06:44:48;97245.66;;;-6.76;100.00
2785;BME280;57944;48.722;9.316;2022-12-13T06:47:23;97250.09;;;-6.81;100.00
2785;BME280;57944;48.722;9.316;2022-12-13T06:49:58;97258.03;;;-6.89;100.00
2785;BME280;57944;48.722;9.316;2022-12-13T06:52:32;97248.44;;;-7.06;100.00
2785;BME280;57944;48.722;9.316;2022-12-13T06:55:05;97255.09;;;-7.07;100.00
2785;BME280;57944;48.722;9.316;2022-12-13T06:57:36;97264.09;;;-7.06;100.00
2785;BME280;57944;48.722;9.316;2022-12-13T07:00:09;97269.84;;;-6.92;100.00
2785;BME280;57944;48.722;9.316;2022-12-13T07:02:52;97270.81;;;-6.82;100.00
2785;BME280;57944;48.722;9.316;2022-12-13T07:05:23;97266.47;;;-6.91;100.00
2785;BME280;57944;48.722;9.316;2022-12-13T07:07:53;97273.59;;;-6.74;100.00
2785;BME280;57944;48.722;9.316;2022-12-13T07:10:26;97269.25;;;-6.96;100.00
2785;BME280;57944;48.722;9.316;2022-12-13T07:12:57;97268.06;;;-7.03;100.00
2785;BME280;57944;48.722;9.316;2022-12-13T07:15:27;97270.41;;;-6.76;100.00
2785;BME280;57944;48.722;9.316;2022-12-13T07:17:57;97278.69;;;-6.52;100.00
2785;BME280;57944;48.722;9.316;2022-12-13T07:20:27;97270.59;;;-6.66;100.00
2785;BME280;57944;48.722;9.316;2022-12-13T07:22:57;97276.44;;;-6.80;100.00
2785;BME280;57944;48.722;9.316;2022-12-13T07:25:30;97276.78;;;-6.85;100.00
2785;BME280;57944;48.722;9.316;2022-12-13T07:28:03;97276.16;;;-6.88;100.00
2785;BME280;57944;48.722;9.316;2022-12-13T07:30:36;97272.91;;;-6.76;100.00
2785;BME280;57944;48.722;9.316;2022-12-13T07:33:08;97277.94;;;-6.65;100.00
2785;BME280;57944;48.722;9.316;2022-12-13T07:35:48;97282.56;;;-6.60;100.00
2785;BME280;57944;48.722;9.316;2022-12-13T07:38:21;97282.22;;;-6.92;100.00
2785;BME280;57944;48.722;9.316;2022-12-13T07:40:55;97278.16;;;-6.93;100.00
2785;BME280;57944;48.722;9.316;2022-12-13T07:43:27;97273.59;;;-6.74;100.00
2785;BME280;57944;48.722;9.316;2022-12-13T07:45:58;97285.06;;;-6.86;100.00
2785;BME280;57944;48.722;9.316;2022-12-13T07:48:29;97289.56;;;-7.04;100.00
2785;BME280;57944;48.722;9.316;2022-12-13T07:51:03;97298.56;;;-6.90;100.00
2785;BME280;57944;48.722;9.316;2022-12-13T07:53:34;97295.78;;;-6.60;100.00
2785;BME280;57944;48.722;9.316;2022-12-13T07:56:09;97302.31;;;-6.71;100.00
2785;BME280;57944;48.722;9.316;2022-12-13T07:58:41;97303.41;;;-6.88;100.00
2785;BME280;57944;48.722;9.316;2022-12-13T08:01:13;97304.72;;;-6.95;100.00
2785;BME280;57944;48.722;9.316;2022-12-13T08:03:47;97307.97;;;-7.08;100.00
2785;BME280;57944;48.722;9.316;2022-12-13T08:06:17;97301.16;;;-7.04;100.00
2785;BME280;57944;48.722;9.316;2022-12-13T08:08:47;97311.06;;;-7.04;100.00
2785;BME280;57944;48.722;9.316;2022-12-13T08:11:20;97307.78;;;-6.79;100.00
2785;BME280;57944;48.722;9.316;2022-12-13T08:13:52;97309.03;;;-6.61;100.00
2785;BME280;57944;48.722;9.316;2022-12-13T08:16:22;97308.25;;;-6.48;100.00
2785;BME280;57944;48.722;9.316;2022-12-13T08:18:56;97303.25;;;-6.36;100.00
2785;BME280;57944;48.722;9.316;2022-12-13T08:21:34;97311.34;;;-6.21;100.00
2785;BME280;57944;48.722;9.316;2022-12-13T08:24:26;97315.81;;;-6.26;100.00
2785;BME280;57944;48.722;9.316;2022-12-13T08:27:01;97310.94;;;-6.15;100.00
2785;BME280;57944;48.722;9.316;2022-12-13T08:29:33;97306.03;;;-6.03;100.00
2785;BME280;57944;48.722;9.316;2022-12-13T08:32:06;97312.44;;;-5.77;100.00
2785;BME280;57944;48.722;9.316;2022-12-13T08:34:36;97308.84;;;-5.73;100.00
2785;BME280;57944;48.722;9.316;2022-12-13T08:37:07;97310.91;;;-5.67;100.00
2785;BME280;57944;48.722;9.316;2022-12-13T08:39:38;97316.13;;;-5.58;100.00
2785;BME280;57944;48.722;9.316;2022-12-13T08:42:14;97313.13;;;-5.75;100.00
2785;BME280;57944;48.722;9.316;2022-12-13T08:44:48;97311.56;;;-5.76;100.00
2785;BME280;57944;48.722;9.316;2022-12-13T08:47:21;97312.78;;;-5.46;100.00
2785;BME280;57944;48.722;9.316;2022-12-13T08:49:54;97313.00;;;-5.49;100.00
2785;BME280;57944;48.722;9.316;2022-12-13T08:52:30;97320.94;;;-5.33;100.00
2785;BME280;57944;48.722;9.316;2022-12-13T08:55:08;97316.22;;;-5.25;100.00
2785;BME280;57944;48.722;9.316;2022-12-13T08:57:43;97323.34;;;-5.20;100.00
2785;BME280;57944;48.722;9.316;2022-12-13T09:00:16;97331.16;;;-5.02;100.00
2785;BME280;57944;48.722;9.316;2022-12-13T09:02:46;97325.75;;;-4.96;100.00
2785;BME280;57944;48.722;9.316;2022-12-13T09:05:17;97325.34;;;-4.79;100.00
2785;BME280;57944;48.722;9.316;2022-12-13T09:08:01;97328.50;;;-4.54;100.00
2785;BME280;57944;48.722;9.316;2022-12-13T09:10:58;97309.06;;;-4.72;100.00
2785;BME280;57944;48.722;9.316;2022-12-13T09:13:40;97301.06;;;-4.64;100.00
2785;BME280;57944;48.722;9.316;2022-12-13T09:16:14;97302.38;;;-4.60;100.00
2785;BME280;57944;48.722;9.316;2022-12-13T09:18:50;97311.31;;;-4.80;100.00
2785;BME280;57944;48.722;9.316;2022-12-13T09:21:23;97294.59;;;-4.55;100.00
2785;BME280;57944;48.722;9.316;2022-12-13T09:23:59;97295.28;;;-4.42;100.00
2785;BME280;57944;48.722;9.316;2022-12-13T09:26:29;97302.03;;;-4.21;100.00
2785;BME280;57944;48.722;9.316;2022-12-13T09:29:07;97305.38;;;-4.00;100.00
2785;BME280;57944;48.722;9.316;2022-12-13T09:31:38;97304.91;;;-3.94;100.00
2785;BME280;57944;48.722;9.316;2022-12-13T09:34:08;97299.22;;;-3.85;100.00
2785;BME280;57944;48.722;9.316;2022-12-13T09:36:38;97294.47;;;-3.88;100.00
2785;BME280;57944;48.722;9.316;2022-12-13T09:39:09;97295.78;;;-3.72;100.00
2785;BME280;57944;48.722;9.316;2022-12-13T09:41:44;97299.06;;;-3.72;100.00
2785;BME280;57944;48.722;9.316;2022-12-13T09:44:23;97300.22;;;-3.55;100.00
2785;BME280;57944;48.722;9.316;2022-12-13T09:47:14;97309.47;;;-3.46;100.00
2785;BME280;57944;48.722;9.316;2022-12-13T09:49:51;97309.66;;;-3.38;100.00
2785;BME280;57944;48.722;9.316;2022-12-13T09:52:38;97312.22;;;-3.28;100.00
2785;BME280;57944;48.722;9.316;2022-12-13T09:55:21;97310.28;;;-3.24;100.00
2785;BME280;57944;48.722;9.316;2022-12-13T09:57:58;97306.00;;;-3.12;100.00
2785;BME280;57944;48.722;9.316;2022-12-13T10:00:35;97302.88;;;-3.15;100.00
2785;BME280;57944;48.722;9.316;2022-12-13T10:03:11;97302.06;;;-3.15;100.00
2785;BME280;57944;48.722;9.316;2022-12-13T10:05:46;97307.78;;;-3.24;100.00
2785;BME280;57944;48.722;9.316;2022-12-13T10:08:33;97304.69;;;-3.17;100.00
2785;BME280;57944;48.722;9.316;2022-12-13T10:11:04;97290.69;;;-3.08;100.00
2785;BME280;57944;48.722;9.316;2022-12-13T10:13:41;97290.53;;;-2.85;100.00
2785;BME280;57944;48.722;9.316;2022-12-13T10:16:23;97283.75;;;-2.74;100.00
2785;BME280;57944;48.722;9.316;2022-12-13T10:19:15;97277.00;;;-2.93;100.00
2785;BME280;57944;48.722;9.316;2022-12-13T10:21:56;97277.00;;;-2.93;100.00
2785;BME280;57944;48.722;9.316;2022-12-13T10:24:47;97283.41;;;-2.69;100.00
2785;BME280;57944;48.722;9.316;2022-12-13T10:27:23;97278.50;;;-2.80;100.00
2785;BME280;57944;48.722;9.316;2022-12-13T10:30:05;97287.50;;;-2.58;100.00
2785;BME280;57944;48.722;9.316;2022-12-13T10:32:51;97278.09;;;-2.45;100.00
2785;BME280;57944;48.722;9.316;2022-12-13T10:35:26;97277.75;;;-2.21;100.00
2785;BME280;57944;48.722;9.316;2022-12-13T10:38:00;97268.44;;;-1.99;100.00
2785;BME280;57944;48.722;9.316;2022-12-13T10:40:33;97261.75;;;-1.99;100.00
2785;BME280;57944;48.722;9.316;2022-12-13T10:43:11;97258.88;;;-1.94;100.00
2785;BME280;57944;48.722;9.316;2022-12-13T10:45:55;97257.41;;;-1.87;100.00
2785;BME280;57944;48.722;9.316;2022-12-13T10:48:34;97257.03;;;-1.83;100.00
2785;BME280;57944;48.722;9.316;2022-12-13T10:51:09;97258.06;;;-1.85;100.00
2785;BME280;57944;48.722;9.316;2022-12-13T10:53:46;97263.72;;;-1.83;100.00
2785;BME280;57944;48.722;9.316;2022-12-13T10:56:19;97254.38;;;-1.52;100.00
2785;BME280;57944;48.722;9.316;2022-12-13T10:59:09;97255.16;;;-1.51;100.00
2785;BME280;57944;48.722;9.316;2022-12-13T11:01:44;97250.94;;;-1.51;100.00
2785;BME280;57944;48.722;9.316;2022-12-13T11:04:25;97249.88;;;-1.48;100.00
2785;BME280;57944;48.722;9.316;2022-12-13T11:06:58;97245.91;;;-1.31;100.00
2785;BME280;57944;48.722;9.316;2022-12-13T11:09:32;97242.13;;;-1.45;100.00
2785;BME280;57944;48.722;9.316;2022-12-13T11:12:14;97240.41;;;-1.35;100.00
2785;BME280;57944;48.722;9.316;2022-12-13T11:14:52;97253.31;;;-1.49;100.00
2785;BME280;57944;48.722;9.316;2022-12-13T11:17:28;97248.00;;;-1.27;100.00
2785;BME280;57944;48.722;9.316;2022-12-13T11:20:06;97246.53;;;-1.10;100.00
2785;BME280;57944;48.722;9.316;2022-12-13T11:22:44;97247.84;;;-1.16;100.00
2785;BME280;57944;48.722;9.316;2022-12-13T11:25:22;97242.25;;;-1.37;100.00
2785;BME280;57944;48.722;9.316;2022-12-13T11:28:10;97242.66;;;-1.42;100.00
2785;BME280;57944;48.722;9.316;2022-12-13T11:31:08;97240.06;;;-1.13;100.00
2785;BME280;57944;48.722;9.316;2022-12-13T11:33:51;97237.84;;;-1.16;100.00
2785;BME280;57944;48.722;9.316;2022-12-13T11:36:40;97213.94;;;-0.91;100.00
2785;BME280;57944;48.722;9.316;2022-12-13T11:39:20;97213.00;;;-0.90;100.00
2785;BME280;57944;48.722;9.316;2022-12-13T11:42:02;97211.03;;;-0.86;96.39
2785;BME280;57944;48.722;9.316;2022-12-13T11:44:44;97210.47;;;-0.80;100.00
2785;BME280;57944;48.722;9.316;2022-12-13T11:47:27;97199.25;;;-1.03;89.16
2785;BME280;57944;48.722;9.316;2022-12-13T11:50:11;97200.84;;;-1.02;100.00
2785;BME280;57944;48.722;9.316;2022-12-13T11:53:20;97207.09;;;-0.88;100.00
2785;BME280;57944;48.722;9.316;2022-12-13T11:56:01;97210.97;;;-0.76;99.94
2785;BME280;57944;48.722;9.316;2022-12-13T11:58:42;97217.03;;;-0.79;98.72
2785;BME280;57944;48.722;9.316;2022-12-13T12:01:42;97221.66;;;-0.56;98.19
2785;BME280;57944;48.722;9.316;2022-12-13T12:04:34;97220.41;;;-0.70;100.00
2785;BME280;57944;48.722;9.316;2022-12-13T12:07:12;97215.38;;;-0.60;94.83
2785;BME280;57944;48.722;9.316;2022-12-13T12:10:25;97218.63;;;-0.50;87.36
2785;BME280;57944;48.722;9.316;2022-12-13T12:13:06;97213.34;;;-0.47;93.65
2785;BME280;57944;48.722;9.316;2022-12-13T12:15:45;97216.66;;;-0.56;85.34
2785;BME280;57944;48.722;9.316;2022-12-13T12:18:21;97211.13;;;-0.50;92.49
2785;BME280;57944;48.722;9.316;2022-12-13T12:21:23;97209.16;;;-0.56;85.05
2785;BME280;57944;48.722;9.316;2022-12-13T12:24:29;97199.63;;;-0.71;85.84
2785;BME280;57944;48.722;9.316;2022-12-13T12:27:26;97202.00;;;-0.51;89.60
2785;BME280;57944;48.722;9.316;2022-12-13T12:30:19;97202.88;;;-0.42;84.06
2785;BME280;57944;48.722;9.316;2022-12-13T12:33:03;97198.59;;;-0.32;86.92
2785;BME280;57944;48.722;9.316;2022-12-13T12:35:58;97197.38;;;-0.28;82.62
2785;BME280;57944;48.722;9.316;2022-12-13T12:39:07;97200.94;;;-0.31;68.16
2785;BME280;57944;48.722;9.316;2022-12-13T12:41:58;97184.72;;;-0.09;80.73
2785;BME280;57944;48.722;9.316;2022-12-13T12:44:44;97179.06;;;0.07;82.26
2785;BME280;57944;48.722;9.316;2022-12-13T12:47:29;97184.94;;;-0.02;76.22
2785;BME280;57944;48.722;9.316;2022-12-13T12:50:38;97175.22;;;-0.05;79.08
2785;BME280;57944;48.722;9.316;2022-12-13T12:53:29;97173.91;;;-0.09;77.10
2785;BME280;57944;48.722;9.316;2022-12-13T12:56:29;97180.78;;;-0.11;72.65
2785;BME280;57944;48.722;9.316;2022-12-13T12:59:10;97181.13;;;-0.06;83.24
2785;BME280;57944;48.722;9.316;2022-12-13T13:01:55;97177.94;;;-0.16;77.94
2785;BME280;57944;48.722;9.316;2022-12-13T13:04:34;97181.06;;;-0.14;79.51
2785;BME280;57944;48.722;9.316;2022-12-13T13:07:15;97177.38;;;-0.10;76.07
2785;BME280;57944;48.722;9.316;2022-12-13T13:09:51;97170.22;;;-0.05;76.15
2785;BME280;57944;48.722;9.316;2022-12-13T13:12:24;97165.75;;;-0.11;75.88
2785;BME280;57944;48.722;9.316;2022-12-13T13:14:57;97164.56;;;-0.07;78.33
2785;BME280;57944;48.722;9.316;2022-12-13T13:17:48;97161.09;;;-0.06;71.99
2785;BME280;57944;48.722;9.316;2022-12-13T13:20:21;97168.75;;;0.10;70.58
2785;BME280;57944;48.722;9.316;2022-12-13T13:22:54;97160.31;;;0.11;65.80
2785;BME280;57944;48.722;9.316;2022-12-13T13:25:54;97153.66;;;0.02;70.18
2785;BME280;57944;48.722;9.316;2022-12-13T13:28:44;97151.66;;;0.32;73.42
2785;BME280;57944;48.722;9.316;2022-12-13T13:31:15;97149.47;;;0.29;63.01
2785;BME280;57944;48.722;9.316;2022-12-13T13:33:49;97147.00;;;0.37;68.72
2785;BME280;57944;48.722;9.316;2022-12-13T13:36:44;97158.47;;;0.21;65.40
2785;BME280;57944;48.722;9.316;2022-12-13T13:39:37;97145.66;;;0.25;72.54
2785;BME280;57944;48.722;9.316;2022-12-13T13:42:17;97142.59;;;0.39;71.54
2785;BME280;57944;48.722;9.316;2022-12-13T13:45:21;97151.72;;;0.40;63.40
2785;BME280;57944;48.722;9.316;2022-12-13T13:48:23;97154.34;;;0.38;69.09
2785;BME280;57944;48.722;9.316;2022-12-13T13:51:30;97157.88;;;0.28;59.65
2785;BME280;57944;48.722;9.316;2022-12-13T13:58:39;97149.94;;;-0.12;74.11
2785;BME280;57944;48.722;9.316;2022-12-13T14:05:08;97142.50;;;-0.04;64.81